X  Close Metar Aviation Weather Data     KSDL Scottsdale Airport
Temperature
91°F Temperature
57°F Dewpoint
32% Humidity



Wind
7 MPH
11 KM/H
3 M/S
6 KTS



300°
WNW
Current Conditions

Partly Cloudy Partly Cloudy
Pressure 1012.52 (hPa) - 29.9 (inHg)
Visibility 9.9 (mile) - 16 (km)
Airport
Airport-code KSDL

Location: Scottsdale Airport
Distance: 14 (mi)

Metar:
KSDL 300353Z AUTO 30006KT 10SM FEW120 33/14 A2990 RMK AO2 SLP094 T03330144

Time: 2021-07-29 20:53 MST